Bishop International Airport
KFNT : now visible

Airfield :











YOU CAN JOIN US ON...

 
LOGIN :

Register | Disclaimer

   EN    FR    IT 

 









Legend :    VFR   Marginal VFR   IFR   Intensive IFR   Very Intensive IFR
Visi :
Ceiling :
>= 8 km
>= 3000ft
5 to 8 km
1000 to 3000 ft
1500m to 5 km
500 to 1000 ft
800 to 1500m
200 to 500 ft
< 800m
< 200 ft
Symbols :   Thunderstorms  Fog  Heavy snow  Heavy precipitations  Wind > 20 kt






- Airport Elevation : 782 ft
- IATA code : FNT


KFNT - Bishop International

CURRENT METAR :
  • 291933Z 01010KT 10SM OVC011 M02/M05 A3013 RMK AO2 T10221050

EXPIRED METARs :
  • 291853Z 35007KT 6SM BR OVC007 M02/M04 A3011 RMK AO2 SNB29E33 CIG 006V011 SLP207 P0000 I1000 T10221039
  • 291826Z 35010KT 5SM BR BKN009 OVC012 M02/M04 A3011 RMK AO2 CIG 005V012 I1000 T10221044 $
  • 291804Z AUTO 36013KT 10SM OVC011 M02/M04 A3011 RMK AO2 T10171044 $
  • 291753Z AUTO 01011KT 10SM M02/M04 A3011 RMK AO2 SLP208 60001 T10171044 11011 21033 $
  • 291653Z 33010KT 7SM OVC008 M02/M03 A3011 RMK AO2 SLP207 T10171033
  • 291631Z 33009KT 10SM OVC008 M02/M04 A3010 RMK AO2 T10171039

TAF KFNT
Valid from the 29 at 18:00 until the 30 at 18:00 UTC


291720Z 2918/3018 33009KT P6SM OVC009
FM292000 35006KT P6SM OVC015
FM300200 31005KT P6SM BKN025
FM301500 28008KT P6SM SCT025 BKN035
KZOB FIR / North America



MET'MAP, your aeronautical weather chart ! - Copyright ORBIFLY December 2007 - Disclaimer

ORBIFLY MET'MAP TEAM :

Programming & Development : Alexandra Zaïnal
Original concept : Baudouin d'Aumeries
Technical & hardware support : Manuel Goepfert
Assistance : Marc-Olivier Méhu




SOURCES & CREDITS :

   NOAA       Earth
Advisory